SCJO

Cañal Bajo Carlos - Hott Siebert Airport

Osorno, Chile
TAF SCJO 181031Z 1812/1824 35005KT 8000 -SHRA BKN020 TN13/1812Z TX15/1818Z BECMG 1817/1819 OVC010 BECMG 1821/1823 7000 -SHRA BKN020 BKN040
Issued Valid From Valid To
Jun-18 @ 10:31 UTC
(3 hours ago)
Jun-18 @ 12:00 UTC
(an hour ago)
Jun-19 @ 00:00 UTC
(in 11 hours)
Jun-18 @ 12:00 to Jun-18 @ 17:00
TAF SCJO 181031Z 1812/1824 35005KT 8000 -SHRA BKN020 TN13/1812Z TX15/1818Z
Wind Visibility Clouds Conditions
350° at 5 knots 7,998 meters
  • Broken at 2,000' AGL
  • Light Rain
Becoming Jun-18 @ 17:00 to Jun-18 @ 21:00
BECMG 1817/1819 OVC010
Wind Visibility Clouds Conditions
350° at 5 knots 7,998 meters
  • Overcast at 1,000' AGL
  • Light Rain
Becoming Jun-18 @ 21:00 to Jun-19 @ 00:00
BECMG 1821/1823 7000 -SHRA BKN020 BKN040
Wind Visibility Clouds Conditions
350° at 5 knots 7,001 meters
  • Broken at 2,000' AGL
  • Broken at 4,000' AGL
  • Light Rain
TAF SCJO 181031Z 1812/1824 35005KT 8000 -SHRA BKN020 TN13/1812Z TX15/1818Z BECMG 1817/1819 OVC010 BECMG 1821/1823 7000 -SHRA BKN020 BKN040
Issued Jun-18 @ 10:31 UTC
(3 hours ago)
Valid From Jun-18 @ 12:00 UTC
(an hour ago)
Valid To Jun-19 @ 00:00 UTC
(in 11 hours)
Jun-18 @ 12:00 - Jun-18 @ 17:00
Wind Visibility
350° at 5 knots 7,998 meters
Clouds
  • Broken at 2,000' AGL
Conditions
  • Light Rain
Becoming Jun-18 @ 17:00 - Jun-18 @ 21:00
Wind Visibility
350° at 5 knots 7,998 meters
Clouds
  • Overcast at 1,000' AGL
Conditions
  • Light Rain
Becoming Jun-18 @ 21:00 - Jun-19 @ 00:00
Wind Visibility
350° at 5 knots 7,001 meters
Clouds
  • Broken at 2,000' AGL
  • Broken at 4,000' AGL
Conditions
  • Light Rain